createdAt,value
2023-04-02T00:01:47.534Z,-4.48
2023-04-02T00:05:21.552Z,-4.63
2023-04-02T00:08:41.666Z,-4.55
2023-04-02T00:11:49.121Z,-4.41
2023-04-02T00:14:55.775Z,-4.35
2023-04-02T00:18:00.779Z,-4.28
2023-04-02T00:21:30.158Z,-4.17
2023-04-02T00:24:34.281Z,-4.14
2023-04-02T00:27:37.832Z,-4.04
2023-04-02T00:30:52.259Z,-4.17
2023-04-02T00:33:56.992Z,-4.15
2023-04-02T00:37:01.112Z,-4.14
2023-04-02T00:40:08.924Z,-4.01
2023-04-02T00:43:19.461Z,-4.09
2023-04-02T00:46:31.056Z,-4.11
2023-04-02T00:49:41.001Z,-4.14
2023-04-02T00:52:47.515Z,-4.21
2023-04-02T00:55:50.994Z,-4.32
2023-04-02T00:58:57.146Z,-4.21
2023-04-02T01:02:17.950Z,-4.01
2023-04-02T01:05:24.681Z,-4.00
2023-04-02T01:08:51.839Z,-3.94
2023-04-02T01:12:29.267Z,-4.02
2023-04-02T01:15:54.809Z,-4.09
2023-04-02T01:18:59.167Z,-3.98
2023-04-02T01:22:48.522Z,-3.81
2023-04-02T01:26:20.420Z,-3.71
2023-04-02T01:29:46.452Z,-3.79
2023-04-02T01:32:51.373Z,-3.88
2023-04-02T01:36:11.240Z,-3.87
2023-04-02T01:39:36.499Z,-3.91
2023-04-02T01:43:34.337Z,-4.02
2023-04-02T01:46:43.160Z,-3.95
2023-04-02T01:49:47.322Z,-3.81
2023-04-02T01:52:55.195Z,-3.84
2023-04-02T01:56:02.750Z,-3.95
2023-04-02T01:59:12.069Z,-3.97
2023-04-02T02:02:18.240Z,-3.88
2023-04-02T02:05:24.131Z,-3.93
2023-04-02T02:08:40.038Z,-4.12
2023-04-02T02:11:45.964Z,-4.11
2023-04-02T02:14:53.057Z,-4.04
2023-04-02T02:18:07.427Z,-4.19
2023-04-02T02:21:15.830Z,-4.05
2023-04-02T02:24:26.698Z,-4.02
2023-04-02T02:27:31.187Z,-3.93
2023-04-02T02:30:58.025Z,-3.97
2023-04-02T02:34:11.749Z,-3.77
2023-04-02T02:37:29.442Z,-3.98
2023-04-02T02:40:37.499Z,-4.12
2023-04-02T02:43:45.133Z,-4.25
2023-04-02T02:47:11.744Z,-4.24
2023-04-02T02:50:23.628Z,-4.04
2023-04-02T02:53:28.523Z,-4.02
2023-04-02T02:56:37.776Z,-4.04
2023-04-02T02:59:42.183Z,-3.97
2023-04-02T03:02:49.501Z,-3.88
2023-04-02T03:06:05.955Z,-3.81
2023-04-02T03:09:28.199Z,-3.97
2023-04-02T03:12:42.761Z,-4.05
2023-04-02T03:16:02.273Z,-4.22
2023-04-02T03:19:45.857Z,-4.52
2023-04-02T03:23:07.263Z,-4.52
2023-04-02T03:26:23.809Z,-4.44
2023-04-02T03:29:38.374Z,-4.24
2023-04-02T03:32:44.902Z,-4.39
2023-04-02T03:36:11.688Z,-4.52
2023-04-02T03:39:28.013Z,-4.76
2023-04-02T03:42:42.329Z,-4.67
2023-04-02T03:45:52.521Z,-4.83
2023-04-02T03:49:02.227Z,-5.11
2023-04-02T03:52:08.202Z,-5.15
2023-04-02T03:55:24.444Z,-5.15
2023-04-02T03:58:53.038Z,-5.22
2023-04-02T04:02:21.912Z,-5.25
2023-04-02T04:05:35.819Z,-5.15
2023-04-02T04:09:17.156Z,-5.18
2023-04-02T04:12:34.422Z,-5.18
2023-04-02T04:16:01.648Z,-4.93
2023-04-02T04:19:21.156Z,-4.81
2023-04-02T04:22:35.128Z,-4.63
2023-04-02T04:26:32.754Z,-4.76
2023-04-02T04:29:52.555Z,-4.83
2023-04-02T04:32:59.689Z,-4.72
2023-04-02T04:36:06.755Z,-4.85
2023-04-02T04:39:24.360Z,-4.98
2023-04-02T04:42:33.956Z,-4.98
2023-04-02T04:45:51.735Z,-4.90
2023-04-02T04:49:12.450Z,-4.98
2023-04-02T04:52:24.676Z,-4.80
2023-04-02T04:55:42.730Z,-4.67
2023-04-02T05:02:33.318Z,-4.65
2023-04-02T05:05:41.463Z,-4.53
2023-04-02T05:08:53.713Z,-4.85
2023-04-02T05:12:38.631Z,-4.84
2023-04-02T05:15:53.036Z,-4.50
2023-04-02T05:19:17.424Z,-4.48
2023-04-02T05:22:26.426Z,-4.45
2023-04-02T05:25:36.317Z,-4.53
2023-04-02T05:28:58.968Z,-4.62
2023-04-02T05:32:12.512Z,-4.69
2023-04-02T05:35:24.204Z,-4.52
2023-04-02T05:38:36.837Z,-4.56
2023-04-02T05:41:50.054Z,-4.74
2023-04-02T05:45:20.487Z,-4.77
2023-04-02T05:48:31.391Z,-4.74
2023-04-02T05:51:49.689Z,-4.80
2023-04-02T05:55:44.635Z,-4.94
2023-04-02T05:59:02.351Z,-4.84
2023-04-02T06:02:36.986Z,-4.65
2023-04-02T06:05:47.273Z,-4.35
2023-04-02T06:08:58.679Z,-4.41
2023-04-02T06:12:30.604Z,-4.38
2023-04-02T06:15:38.843Z,-4.38
2023-04-02T06:18:47.091Z,-4.29
2023-04-02T06:21:54.145Z,-4.14
2023-04-02T06:25:06.684Z,-4.25
2023-04-02T06:28:47.245Z,-4.19
2023-04-02T06:32:02.058Z,-3.94
2023-04-02T06:35:07.657Z,-3.87
2023-04-02T06:38:21.398Z,-3.94
2023-04-02T06:41:26.802Z,-4.02
2023-04-02T06:44:43.165Z,-3.86
2023-04-02T06:48:03.435Z,-3.71
2023-04-02T06:51:21.646Z,-3.87
2023-04-02T06:54:25.316Z,-3.94
2023-04-02T06:57:36.747Z,-4.00
2023-04-02T07:00:47.799Z,-3.93
2023-04-02T07:03:59.327Z,-3.58
2023-04-02T07:07:14.258Z,-3.39
2023-04-02T07:10:28.877Z,-3.32
2023-04-02T07:13:33.247Z,-3.24
2023-04-02T07:16:37.421Z,-3.03
2023-04-02T07:19:42.458Z,-3.22
2023-04-02T07:22:46.189Z,-3.35
2023-04-02T07:25:51.818Z,-3.34
2023-04-02T07:28:57.122Z,-3.21
2023-04-02T07:32:01.100Z,-3.08
2023-04-02T07:35:06.676Z,-3.11
2023-04-02T07:38:10.842Z,-2.97
2023-04-02T07:41:15.082Z,-3.00
2023-04-02T07:44:18.773Z,-2.80
2023-04-02T07:47:22.953Z,-3.00
2023-04-02T07:50:26.665Z,-3.08
2023-04-02T07:53:41.562Z,-3.01
2023-04-02T07:56:44.741Z,-3.05
2023-04-02T07:59:48.429Z,-3.04
2023-04-02T08:02:52.505Z,-3.00
2023-04-02T08:05:59.072Z,-3.22
2023-04-02T08:09:03.268Z,-3.41
2023-04-02T08:12:06.686Z,-3.41
2023-04-02T08:15:15.130Z,-3.60
2023-04-02T08:18:18.796Z,-3.45
2023-04-02T08:21:22.570Z,-3.73
2023-04-02T08:24:26.603Z,-3.69
2023-04-02T08:27:30.424Z,-3.93
2023-04-02T08:30:34.387Z,-3.93
2023-04-02T08:33:38.578Z,-4.00
2023-04-02T08:36:45.799Z,-4.15
2023-04-02T08:39:50.795Z,-4.19
2023-04-02T08:43:00.305Z,-4.02
2023-04-02T08:46:23.040Z,-3.87
2023-04-02T08:49:47.345Z,-3.74
2023-04-02T08:52:52.397Z,-3.76
2023-04-02T08:56:09.100Z,-3.67
2023-04-02T08:59:34.840Z,-3.50
2023-04-02T09:02:47.598Z,-3.43
2023-04-02T09:05:53.337Z,-3.38
2023-04-02T09:08:58.495Z,-3.32
2023-04-02T09:12:05.452Z,-3.60
2023-04-02T09:15:19.094Z,-3.69
2023-04-02T09:18:22.973Z,-3.73
2023-04-02T09:21:41.671Z,-3.70
2023-04-02T09:24:45.482Z,-3.77
2023-04-02T09:31:23.737Z,-3.62
2023-04-02T09:34:33.651Z,-3.64
2023-04-02T09:37:38.010Z,-3.71
2023-04-02T09:40:50.941Z,-3.74
2023-04-02T09:44:22.781Z,-3.71
2023-04-02T09:47:30.052Z,-3.71
2023-04-02T09:50:34.918Z,-3.95
2023-04-02T09:53:50.486Z,-4.00
2023-04-02T09:57:06.673Z,-4.04
2023-04-02T10:00:30.482Z,-4.00
2023-04-02T10:03:37.468Z,-4.09
2023-04-02T10:06:51.249Z,-4.22
2023-04-02T10:10:05.211Z,-4.29
2023-04-02T10:13:16.389Z,-4.36
2023-04-02T10:16:35.907Z,-4.36
2023-04-02T10:19:50.066Z,-4.30
2023-04-02T10:22:54.548Z,-4.39
2023-04-02T10:26:31.011Z,-4.48
2023-04-02T10:30:06.760Z,-4.46
2023-04-02T10:33:36.928Z,-4.39
2023-04-02T10:37:05.737Z,-4.39
2023-04-02T10:40:49.421Z,-4.53
2023-04-02T10:44:22.076Z,-4.59
2023-04-02T10:47:32.964Z,-4.69
2023-04-02T10:50:54.777Z,-4.69
2023-04-02T10:54:17.124Z,-4.81
2023-04-02T10:57:43.812Z,-4.85
2023-04-02T11:00:48.681Z,-4.93
2023-04-02T11:04:04.128Z,-5.12
2023-04-02T11:07:14.992Z,-5.16
2023-04-02T11:10:21.048Z,-5.28
2023-04-02T11:13:54.698Z,-5.18
2023-04-02T11:17:01.203Z,-5.19
2023-04-02T11:21:02.453Z,-5.23
2023-04-02T11:24:06.906Z,-5.26
2023-04-02T11:27:13.116Z,-5.44
2023-04-02T11:30:28.921Z,-5.43
2023-04-02T11:33:39.331Z,-5.53
2023-04-02T11:36:55.608Z,-5.60
2023-04-02T11:40:06.668Z,-5.59
2023-04-02T11:43:34.822Z,-5.64
2023-04-02T11:46:46.338Z,-5.70
2023-04-02T11:49:56.429Z,-5.73
2023-04-02T11:53:05.302Z,-5.64
2023-04-02T11:56:29.638Z,-5.55
2023-04-02T12:00:32.365Z,-5.53
2023-04-02T12:04:00.748Z,-5.49
2023-04-02T12:07:35.572Z,-5.44
2023-04-02T12:10:58.084Z,-5.50
2023-04-02T12:14:02.614Z,-5.36
2023-04-02T12:17:18.445Z,-5.44
2023-04-02T12:20:33.193Z,-5.46
2023-04-02T12:23:38.353Z,-5.56
2023-04-02T12:26:43.843Z,-5.59
2023-04-02T12:29:47.857Z,-5.59
2023-04-02T12:32:52.082Z,-5.58
2023-04-02T12:36:04.029Z,-5.70
2023-04-02T12:39:18.164Z,-5.73
2023-04-02T12:42:31.079Z,-5.79
2023-04-02T12:45:36.343Z,-5.86
2023-04-02T12:48:40.403Z,-5.86
2023-04-02T12:51:44.247Z,-5.90
2023-04-02T12:54:56.784Z,-5.93
2023-04-02T12:58:01.983Z,-5.98
2023-04-02T13:01:30.379Z,-5.94
2023-04-02T13:04:33.996Z,-5.94
2023-04-02T13:07:39.166Z,-5.95
2023-04-02T13:10:45.052Z,-5.98
2023-04-02T13:13:52.707Z,-5.93
2023-04-02T13:16:57.343Z,-6.01
2023-04-02T13:20:37.652Z,-6.04
2023-04-02T13:23:46.959Z,-6.12
2023-04-02T13:26:52.240Z,-6.08
2023-04-02T13:29:56.270Z,-6.11
2023-04-02T13:33:00.354Z,-6.17
2023-04-02T13:36:04.330Z,-6.22
2023-04-02T13:39:08.950Z,-6.22
2023-04-02T13:42:13.764Z,-6.24
2023-04-02T13:45:23.401Z,-6.26
2023-04-02T13:48:29.808Z,-6.25
2023-04-02T13:51:45.146Z,-6.25
2023-04-02T13:54:50.259Z,-6.29
2023-04-02T13:57:53.708Z,-6.30
2023-04-02T14:01:02.448Z,-6.36
2023-04-02T14:04:07.135Z,-6.39
2023-04-02T14:07:21.406Z,-6.39
2023-04-02T14:10:45.994Z,-6.40
2023-04-02T14:14:10.053Z,-6.47
2023-04-02T14:17:48.104Z,-6.53
2023-04-02T14:20:53.945Z,-6.53
2023-04-02T14:24:18.315Z,-6.52
2023-04-02T14:27:48.650Z,-6.52
2023-04-02T14:31:09.706Z,-6.47
2023-04-02T14:34:37.186Z,-6.45
2023-04-02T14:37:49.269Z,-6.46
2023-04-02T14:41:17.920Z,-6.42
2023-04-02T14:44:27.050Z,-6.43
2023-04-02T14:47:55.414Z,-6.42
2023-04-02T14:51:03.748Z,-6.40
2023-04-02T14:54:19.586Z,-6.40
2023-04-02T14:57:33.796Z,-6.39
2023-04-02T15:04:23.751Z,-6.33
2023-04-02T15:07:35.562Z,-6.32
2023-04-02T15:14:45.032Z,-6.33
2023-04-02T15:17:52.013Z,-6.29
2023-04-02T15:21:10.324Z,-6.32
2023-04-02T15:28:43.830Z,-6.33
2023-04-02T15:31:52.632Z,-6.40
2023-04-02T15:35:09.251Z,-6.43
2023-04-02T15:38:38.896Z,-6.47
2023-04-02T15:42:02.348Z,-6.50
2023-04-02T15:45:21.715Z,-6.52
2023-04-02T15:48:34.644Z,-6.50
2023-04-02T15:51:49.863Z,-6.49
2023-04-02T15:55:34.610Z,-6.42
2023-04-02T15:59:00.526Z,-6.39
2023-04-02T16:02:21.013Z,-6.33
2023-04-02T16:05:37.313Z,-6.29
2023-04-02T16:09:05.301Z,-6.32
2023-04-02T16:12:20.802Z,-6.35
2023-04-02T16:15:41.393Z,-6.36
2023-04-02T16:19:16.698Z,-6.43
2023-04-02T16:22:36.014Z,-6.46
2023-04-02T16:26:15.558Z,-6.46
2023-04-02T16:29:47.394Z,-6.50
2023-04-02T16:33:21.966Z,-6.49
2023-04-02T16:36:47.980Z,-6.45
2023-04-02T16:41:04.671Z,-6.50
2023-04-02T16:44:17.228Z,-6.50
2023-04-02T16:47:43.371Z,-6.54
2023-04-02T16:51:15.921Z,-6.62
2023-04-02T16:54:40.725Z,-6.66
2023-04-02T16:58:20.076Z,-6.73
2023-04-02T17:01:51.162Z,-6.80
2023-04-02T17:05:18.084Z,-6.85
2023-04-02T17:08:37.256Z,-6.83
2023-04-02T17:11:54.257Z,-6.83
2023-04-02T17:15:24.897Z,-6.88
2023-04-02T17:18:38.838Z,-6.88
2023-04-02T17:21:51.453Z,-6.91
2023-04-02T17:25:07.257Z,-6.94
2023-04-02T17:28:28.572Z,-6.93
2023-04-02T17:31:40.326Z,-6.95
2023-04-02T17:34:53.191Z,-6.98
2023-04-02T17:38:10.100Z,-7.00
2023-04-02T17:41:47.920Z,-7.00
2023-04-02T17:44:56.737Z,-7.00
2023-04-02T17:48:16.835Z,-7.01
2023-04-02T17:51:25.795Z,-6.98
2023-04-02T17:54:54.753Z,-7.00
2023-04-02T17:58:14.240Z,-7.04
2023-04-02T18:01:43.640Z,-7.01
2023-04-02T18:05:12.244Z,-7.00
2023-04-02T18:08:40.207Z,-7.07
2023-04-02T18:12:10.550Z,-7.12
2023-04-02T18:15:31.157Z,-7.18
2023-04-02T18:18:54.724Z,-7.19
2023-04-02T18:22:20.338Z,-7.16
2023-04-02T18:25:34.820Z,-7.15
2023-04-02T18:29:06.887Z,-7.26
2023-04-02T18:32:46.553Z,-7.26
2023-04-02T18:36:29.433Z,-7.36
2023-04-02T18:40:01.239Z,-7.38
2023-04-02T18:44:00.318Z,-7.56
2023-04-02T18:47:56.077Z,-7.74
2023-04-02T18:51:07.356Z,-7.87
2023-04-02T18:54:33.264Z,-8.07
2023-04-02T18:57:46.435Z,-8.21
2023-04-02T19:00:56.390Z,-8.26
2023-04-02T19:04:12.628Z,-8.35
2023-04-02T19:07:23.718Z,-8.29
2023-04-02T19:10:45.748Z,-8.35
2023-04-02T19:13:54.998Z,-8.40
2023-04-02T19:17:31.227Z,-8.36
2023-04-02T19:20:59.958Z,-8.33
2023-04-02T19:24:27.518Z,-8.35
2023-04-02T19:28:22.349Z,-8.30
2023-04-02T19:31:54.078Z,-8.28
2023-04-02T19:35:35.902Z,-8.32
2023-04-02T19:39:13.493Z,-8.33
2023-04-02T19:42:40.962Z,-8.33
2023-04-02T19:45:53.061Z,-8.33
2023-04-02T19:49:08.853Z,-8.26
2023-04-02T19:52:19.625Z,-8.32
2023-04-02T19:55:29.877Z,-8.35
2023-04-02T19:58:41.270Z,-8.39
2023-04-02T20:01:50.803Z,-8.36
2023-04-02T20:05:00.795Z,-8.36
2023-04-02T20:08:10.919Z,-8.40
2023-04-02T20:11:21.898Z,-8.29
2023-04-02T20:14:31.646Z,-8.35
2023-04-02T20:17:42.032Z,-8.42
2023-04-02T20:20:54.111Z,-8.45
2023-04-02T20:24:04.381Z,-8.50
2023-04-02T20:27:17.418Z,-8.52
2023-04-02T20:30:30.743Z,-8.54
2023-04-02T20:33:40.704Z,-8.60
2023-04-02T20:36:53.678Z,-8.71
2023-04-02T20:40:08.174Z,-8.83
2023-04-02T20:43:22.125Z,-8.93
2023-04-02T20:49:53.733Z,-9.08
2023-04-02T20:53:11.445Z,-9.08
2023-04-02T20:59:45.092Z,-9.19
2023-04-02T21:02:57.515Z,-9.23
2023-04-02T21:09:29.296Z,-9.33
2023-04-02T21:12:42.806Z,-9.32
2023-04-02T21:15:56.509Z,-9.29
2023-04-02T21:19:13.165Z,-9.32
2023-04-02T21:26:12.284Z,-9.39
2023-04-02T21:32:49.037Z,-9.38
2023-04-02T21:42:50.295Z,-9.38
2023-04-02T21:59:43.090Z,-9.23
2023-04-02T22:02:57.001Z,-9.18
2023-04-02T22:06:23.823Z,-9.16
2023-04-02T22:09:35.419Z,-9.11
2023-04-02T22:12:47.203Z,-9.11
2023-04-02T22:16:00.989Z,-9.02
2023-04-02T22:19:21.852Z,-9.09
2023-04-02T22:22:36.338Z,-9.08
2023-04-02T22:25:53.436Z,-9.09
2023-04-02T22:29:13.621Z,-9.05
2023-04-02T22:32:18.910Z,-9.01
2023-04-02T22:35:22.194Z,-8.93
2023-04-02T22:38:30.882Z,-8.85
2023-04-02T22:41:34.762Z,-8.80
2023-04-02T22:44:39.104Z,-8.70
2023-04-02T22:47:43.464Z,-8.67
2023-04-02T22:50:51.449Z,-8.64
2023-04-02T22:53:56.145Z,-8.66
2023-04-02T22:57:03.206Z,-8.61
2023-04-02T23:00:14.253Z,-8.54
2023-04-02T23:03:24.605Z,-8.60
2023-04-02T23:06:35.173Z,-8.56
2023-04-02T23:09:45.451Z,-8.50
2023-04-02T23:12:55.492Z,-8.58
2023-04-02T23:16:07.931Z,-8.52
2023-04-02T23:19:18.983Z,-8.53
2023-04-02T23:22:29.463Z,-8.46
2023-04-02T23:25:40.546Z,-8.35
2023-04-02T23:28:50.701Z,-8.46
2023-04-02T23:32:00.455Z,-8.33
2023-04-02T23:35:10.900Z,-8.28
2023-04-02T23:38:20.749Z,-8.40
2023-04-02T23:41:32.048Z,-8.39
2023-04-02T23:44:41.795Z,-8.32
2023-04-02T23:47:54.227Z,-8.14
2023-04-02T23:51:03.129Z,-8.08
2023-04-02T23:54:13.822Z,-7.98
2023-04-02T23:57:24.400Z,-8.02
